sensor_id;sensor_type;location;lat;lon;timestamp;P1;durP1;ratioP1;P2;durP2;ratioP2
2706;SDS011;7819;48.046;7.642;2023-04-05T00:01:02;4.20;;;3.80;;
2706;SDS011;7819;48.046;7.642;2023-04-05T00:03:31;4.53;;;3.80;;
2706;SDS011;7819;48.046;7.642;2023-04-05T00:05:56;5.47;;;3.63;;
2706;SDS011;7819;48.046;7.642;2023-04-05T00:08:22;2.97;;;2.70;;
2706;SDS011;7819;48.046;7.642;2023-04-05T00:10:52;4.53;;;3.97;;
2706;SDS011;7819;48.046;7.642;2023-04-05T00:13:18;5.20;;;3.77;;
2706;SDS011;7819;48.046;7.642;2023-04-05T00:15:43;3.53;;;2.87;;
2706;SDS011;7819;48.046;7.642;2023-04-05T00:18:08;3.93;;;3.53;;
2706;SDS011;7819;48.046;7.642;2023-04-05T00:20:54;4.53;;;3.27;;
2706;SDS011;7819;48.046;7.642;2023-04-05T00:23:20;3.70;;;3.10;;
2706;SDS011;7819;48.046;7.642;2023-04-05T00:25:46;4.87;;;3.40;;
2706;SDS011;7819;48.046;7.642;2023-04-05T00:28:12;6.13;;;3.70;;
2706;SDS011;7819;48.046;7.642;2023-04-05T00:30:37;4.00;;;3.33;;
2706;SDS011;7819;48.046;7.642;2023-04-05T00:33:02;3.90;;;3.30;;
2706;SDS011;7819;48.046;7.642;2023-04-05T00:35:28;4.20;;;3.73;;
2706;SDS011;7819;48.046;7.642;2023-04-05T00:37:54;4.13;;;3.73;;
2706;SDS011;7819;48.046;7.642;2023-04-05T00:40:19;5.50;;;3.10;;
2706;SDS011;7819;48.046;7.642;2023-04-05T00:42:44;3.27;;;3.07;;
2706;SDS011;7819;48.046;7.642;2023-04-05T00:45:10;4.33;;;3.60;;
2706;SDS011;7819;48.046;7.642;2023-04-05T00:47:35;3.80;;;3.37;;
2706;SDS011;7819;48.046;7.642;2023-04-05T00:50:00;4.60;;;4.20;;
2706;SDS011;7819;48.046;7.642;2023-04-05T00:52:26;4.00;;;3.67;;
2706;SDS011;7819;48.046;7.642;2023-04-05T00:54:51;4.30;;;3.80;;
2706;SDS011;7819;48.046;7.642;2023-04-05T00:57:17;4.20;;;3.50;;
2706;SDS011;7819;48.046;7.642;2023-04-05T00:59:42;4.57;;;3.70;;
2706;SDS011;7819;48.046;7.642;2023-04-05T01:02:10;4.00;;;3.70;;
2706;SDS011;7819;48.046;7.642;2023-04-05T01:04:40;5.60;;;3.47;;
2706;SDS011;7819;48.046;7.642;2023-04-05T01:12:06;3.80;;;3.50;;
2706;SDS011;7819;48.046;7.642;2023-04-05T01:14:42;7.67;;;3.70;;
2706;SDS011;7819;48.046;7.642;2023-04-05T01:17:08;5.70;;;4.13;;
2706;SDS011;7819;48.046;7.642;2023-04-05T01:19:33;4.60;;;4.20;;
2706;SDS011;7819;48.046;7.642;2023-04-05T01:24:53;4.70;;;4.10;;
2706;SDS011;7819;48.046;7.642;2023-04-05T01:30:16;5.37;;;4.87;;
2706;SDS011;7819;48.046;7.642;2023-04-05T01:32:47;5.03;;;4.53;;
2706;SDS011;7819;48.046;7.642;2023-04-05T01:37:43;6.07;;;4.67;;
2706;SDS011;7819;48.046;7.642;2023-04-05T01:40:09;5.17;;;4.37;;
2706;SDS011;7819;48.046;7.642;2023-04-05T01:42:34;5.80;;;4.80;;
2706;SDS011;7819;48.046;7.642;2023-04-05T01:44:59;5.27;;;4.37;;
2706;SDS011;7819;48.046;7.642;2023-04-05T01:47:25;5.00;;;4.60;;
2706;SDS011;7819;48.046;7.642;2023-04-05T01:49:50;5.03;;;4.57;;
2706;SDS011;7819;48.046;7.642;2023-04-05T01:52:15;5.30;;;4.80;;
2706;SDS011;7819;48.046;7.642;2023-04-05T01:54:40;5.17;;;4.77;;
2706;SDS011;7819;48.046;7.642;2023-04-05T01:57:06;9.63;;;4.80;;
2706;SDS011;7819;48.046;7.642;2023-04-05T01:59:31;6.43;;;5.20;;
2706;SDS011;7819;48.046;7.642;2023-04-05T02:01:56;5.13;;;4.63;;
2706;SDS011;7819;48.046;7.642;2023-04-05T02:04:21;5.00;;;4.50;;
2706;SDS011;7819;48.046;7.642;2023-04-05T02:06:46;6.40;;;5.23;;
2706;SDS011;7819;48.046;7.642;2023-04-05T02:09:12;6.30;;;5.40;;
2706;SDS011;7819;48.046;7.642;2023-04-05T02:11:37;5.00;;;4.53;;
2706;SDS011;7819;48.046;7.642;2023-04-05T02:14:02;4.60;;;4.20;;
2706;SDS011;7819;48.046;7.642;2023-04-05T02:16:28;5.07;;;4.43;;
2706;SDS011;7819;48.046;7.642;2023-04-05T02:18:57;5.00;;;4.50;;
2706;SDS011;7819;48.046;7.642;2023-04-05T02:21:23;6.90;;;5.57;;
2706;SDS011;7819;48.046;7.642;2023-04-05T02:23:50;5.53;;;5.03;;
2706;SDS011;7819;48.046;7.642;2023-04-05T02:26:15;5.10;;;4.60;;
2706;SDS011;7819;48.046;7.642;2023-04-05T02:28:40;5.83;;;4.87;;
2706;SDS011;7819;48.046;7.642;2023-04-05T02:31:09;4.83;;;4.43;;
2706;SDS011;7819;48.046;7.642;2023-04-05T02:33:35;6.30;;;5.70;;
2706;SDS011;7819;48.046;7.642;2023-04-05T02:36:02;5.53;;;4.30;;
2706;SDS011;7819;48.046;7.642;2023-04-05T02:38:27;4.87;;;4.47;;
2706;SDS011;7819;48.046;7.642;2023-04-05T02:40:53;6.40;;;5.30;;
2706;SDS011;7819;48.046;7.642;2023-04-05T02:43:19;6.07;;;5.10;;
2706;SDS011;7819;48.046;7.642;2023-04-05T02:45:44;6.20;;;5.23;;
2706;SDS011;7819;48.046;7.642;2023-04-05T02:48:10;5.70;;;5.20;;
2706;SDS011;7819;48.046;7.642;2023-04-05T02:50:35;6.73;;;4.87;;
2706;SDS011;7819;48.046;7.642;2023-04-05T02:53:00;4.83;;;4.43;;
2706;SDS011;7819;48.046;7.642;2023-04-05T02:55:25;5.67;;;5.17;;
2706;SDS011;7819;48.046;7.642;2023-04-05T02:57:55;5.40;;;4.60;;
2706;SDS011;7819;48.046;7.642;2023-04-05T03:00:21;6.40;;;4.53;;
2706;SDS011;7819;48.046;7.642;2023-04-05T03:02:47;5.00;;;4.50;;
2706;SDS011;7819;48.046;7.642;2023-04-05T03:05:12;5.73;;;5.23;;
2706;SDS011;7819;48.046;7.642;2023-04-05T03:07:37;4.70;;;4.30;;
2706;SDS011;7819;48.046;7.642;2023-04-05T03:10:06;5.20;;;4.60;;
2706;SDS011;7819;48.046;7.642;2023-04-05T03:12:32;5.50;;;5.00;;
2706;SDS011;7819;48.046;7.642;2023-04-05T03:14:57;5.20;;;4.80;;
2706;SDS011;7819;48.046;7.642;2023-04-05T03:17:22;5.53;;;5.13;;
2706;SDS011;7819;48.046;7.642;2023-04-05T03:19:47;5.20;;;4.77;;
2706;SDS011;7819;48.046;7.642;2023-04-05T03:22:12;5.67;;;4.50;;
2706;SDS011;7819;48.046;7.642;2023-04-05T03:24:38;6.40;;;5.33;;
2706;SDS011;7819;48.046;7.642;2023-04-05T03:27:03;5.67;;;5.17;;
2706;SDS011;7819;48.046;7.642;2023-04-05T03:29:30;8.27;;;5.67;;
2706;SDS011;7819;48.046;7.642;2023-04-05T03:31:56;6.67;;;5.77;;
2706;SDS011;7819;48.046;7.642;2023-04-05T03:34:21;5.90;;;5.40;;
2706;SDS011;7819;48.046;7.642;2023-04-05T03:36:46;6.53;;;5.33;;
2706;SDS011;7819;48.046;7.642;2023-04-05T03:39:13;5.87;;;5.37;;
2706;SDS011;7819;48.046;7.642;2023-04-05T03:41:38;6.07;;;5.33;;
2706;SDS011;7819;48.046;7.642;2023-04-05T03:44:04;6.60;;;6.00;;
2706;SDS011;7819;48.046;7.642;2023-04-05T03:46:29;6.40;;;5.80;;
2706;SDS011;7819;48.046;7.642;2023-04-05T03:48:55;6.80;;;6.20;;
2706;SDS011;7819;48.046;7.642;2023-04-05T03:51:21;8.43;;;5.53;;
2706;SDS011;7819;48.046;7.642;2023-04-05T03:53:46;5.70;;;5.03;;
2706;SDS011;7819;48.046;7.642;2023-04-05T03:56:11;5.83;;;5.23;;
2706;SDS011;7819;48.046;7.642;2023-04-05T03:58:36;6.20;;;5.07;;
2706;SDS011;7819;48.046;7.642;2023-04-05T04:01:02;5.90;;;5.40;;
2706;SDS011;7819;48.046;7.642;2023-04-05T04:03:27;5.10;;;4.70;;
2706;SDS011;7819;48.046;7.642;2023-04-05T04:05:53;5.73;;;4.77;;
2706;SDS011;7819;48.046;7.642;2023-04-05T04:08:18;5.50;;;5.00;;
2706;SDS011;7819;48.046;7.642;2023-04-05T04:10:43;7.40;;;5.17;;
2706;SDS011;7819;48.046;7.642;2023-04-05T04:13:08;5.70;;;5.20;;
2706;SDS011;7819;48.046;7.642;2023-04-05T04:15:34;6.47;;;5.80;;
2706;SDS011;7819;48.046;7.642;2023-04-05T04:17:59;5.83;;;5.33;;
2706;SDS011;7819;48.046;7.642;2023-04-05T04:20:24;8.40;;;5.87;;
2706;SDS011;7819;48.046;7.642;2023-04-05T04:22:49;6.73;;;5.83;;
2706;SDS011;7819;48.046;7.642;2023-04-05T04:25:17;6.83;;;6.23;;
2706;SDS011;7819;48.046;7.642;2023-04-05T04:27:44;6.70;;;6.00;;
2706;SDS011;7819;48.046;7.642;2023-04-05T04:30:11;6.73;;;6.13;;
2706;SDS011;7819;48.046;7.642;2023-04-05T04:32:37;7.20;;;6.50;;
2706;SDS011;7819;48.046;7.642;2023-04-05T04:35:15;8.23;;;7.17;;
2706;SDS011;7819;48.046;7.642;2023-04-05T04:37:49;7.90;;;6.70;;
2706;SDS011;7819;48.046;7.642;2023-04-05T04:40:17;8.73;;;6.77;;
2706;SDS011;7819;48.046;7.642;2023-04-05T04:42:42;9.80;;;7.30;;
2706;SDS011;7819;48.046;7.642;2023-04-05T04:45:10;7.17;;;6.50;;
2706;SDS011;7819;48.046;7.642;2023-04-05T04:47:36;6.90;;;6.20;;
2706;SDS011;7819;48.046;7.642;2023-04-05T04:50:01;7.50;;;6.80;;
2706;SDS011;7819;48.046;7.642;2023-04-05T04:52:28;8.10;;;7.30;;
2706;SDS011;7819;48.046;7.642;2023-04-05T04:54:53;7.57;;;6.80;;
2706;SDS011;7819;48.046;7.642;2023-04-05T04:57:18;7.10;;;6.40;;
2706;SDS011;7819;48.046;7.642;2023-04-05T04:59:44;6.73;;;6.03;;
2706;SDS011;7819;48.046;7.642;2023-04-05T05:02:09;8.53;;;6.70;;
2706;SDS011;7819;48.046;7.642;2023-04-05T05:04:35;6.77;;;6.17;;
2706;SDS011;7819;48.046;7.642;2023-04-05T05:07:00;8.37;;;7.53;;
2706;SDS011;7819;48.046;7.642;2023-04-05T05:09:25;6.77;;;6.07;;
2706;SDS011;7819;48.046;7.642;2023-04-05T05:11:51;7.37;;;6.57;;
2706;SDS011;7819;48.046;7.642;2023-04-05T05:14:16;10.97;;;7.33;;
2706;SDS011;7819;48.046;7.642;2023-04-05T05:16:41;9.00;;;8.20;;
2706;SDS011;7819;48.046;7.642;2023-04-05T05:19:06;10.43;;;8.37;;
2706;SDS011;7819;48.046;7.642;2023-04-05T05:21:31;9.63;;;7.03;;
2706;SDS011;7819;48.046;7.642;2023-04-05T05:23:57;8.67;;;7.57;;
2706;SDS011;7819;48.046;7.642;2023-04-05T05:26:22;10.50;;;7.53;;
2706;SDS011;7819;48.046;7.642;2023-04-05T05:28:47;9.50;;;8.30;;
2706;SDS011;7819;48.046;7.642;2023-04-05T05:31:13;6.77;;;6.17;;
2706;SDS011;7819;48.046;7.642;2023-04-05T05:33:39;7.90;;;7.20;;
2706;SDS011;7819;48.046;7.642;2023-04-05T05:36:05;8.33;;;7.53;;
2706;SDS011;7819;48.046;7.642;2023-04-05T05:38:31;10.50;;;7.40;;
2706;SDS011;7819;48.046;7.642;2023-04-05T05:40:56;13.03;;;8.00;;
2706;SDS011;7819;48.046;7.642;2023-04-05T05:43:21;7.57;;;6.87;;
2706;SDS011;7819;48.046;7.642;2023-04-05T05:45:47;10.30;;;6.90;;
2706;SDS011;7819;48.046;7.642;2023-04-05T05:48:12;6.50;;;5.90;;
2706;SDS011;7819;48.046;7.642;2023-04-05T05:50:37;8.43;;;7.50;;
2706;SDS011;7819;48.046;7.642;2023-04-05T05:53:03;7.73;;;6.93;;
2706;SDS011;7819;48.046;7.642;2023-04-05T05:55:28;6.17;;;5.67;;
2706;SDS011;7819;48.046;7.642;2023-04-05T05:57:53;6.90;;;6.30;;
2706;SDS011;7819;48.046;7.642;2023-04-05T06:00:19;7.90;;;7.20;;
2706;SDS011;7819;48.046;7.642;2023-04-05T06:02:45;7.73;;;7.03;;
2706;SDS011;7819;48.046;7.642;2023-04-05T06:05:10;9.57;;;8.57;;
2706;SDS011;7819;48.046;7.642;2023-04-05T06:07:36;10.70;;;9.70;;
2706;SDS011;7819;48.046;7.642;2023-04-05T06:10:01;10.27;;;9.30;;
2706;SDS011;7819;48.046;7.642;2023-04-05T06:12:27;10.73;;;8.47;;
2706;SDS011;7819;48.046;7.642;2023-04-05T06:14:52;8.93;;;8.07;;
2706;SDS011;7819;48.046;7.642;2023-04-05T06:17:17;13.07;;;9.47;;
2706;SDS011;7819;48.046;7.642;2023-04-05T06:19:42;8.63;;;7.27;;
2706;SDS011;7819;48.046;7.642;2023-04-05T06:22:07;8.70;;;7.83;;
2706;SDS011;7819;48.046;7.642;2023-04-05T06:24:33;9.23;;;8.00;;
2706;SDS011;7819;48.046;7.642;2023-04-05T06:26:58;13.10;;;8.77;;
2706;SDS011;7819;48.046;7.642;2023-04-05T06:29:23;7.40;;;6.70;;
2706;SDS011;7819;48.046;7.642;2023-04-05T06:31:48;9.03;;;8.13;;
2706;SDS011;7819;48.046;7.642;2023-04-05T06:34:13;9.20;;;7.10;;
2706;SDS011;7819;48.046;7.642;2023-04-05T06:36:39;8.60;;;7.80;;
2706;SDS011;7819;48.046;7.642;2023-04-05T06:39:04;9.10;;;7.93;;
2706;SDS011;7819;48.046;7.642;2023-04-05T06:41:29;12.80;;;9.17;;
2706;SDS011;7819;48.046;7.642;2023-04-05T06:43:55;10.53;;;9.57;;
2706;SDS011;7819;48.046;7.642;2023-04-05T06:46:20;9.57;;;8.47;;
2706;SDS011;7819;48.046;7.642;2023-04-05T06:48:45;10.93;;;9.80;;
2706;SDS011;7819;48.046;7.642;2023-04-05T06:51:12;7.40;;;6.63;;
2706;SDS011;7819;48.046;7.642;2023-04-05T06:53:37;7.73;;;6.83;;
2706;SDS011;7819;48.046;7.642;2023-04-05T06:56:02;7.97;;;6.53;;
2706;SDS011;7819;48.046;7.642;2023-04-05T06:58:28;6.60;;;6.00;;
2706;SDS011;7819;48.046;7.642;2023-04-05T07:00:53;8.30;;;7.40;;
2706;SDS011;7819;48.046;7.642;2023-04-05T07:03:18;7.93;;;7.13;;
2706;SDS011;7819;48.046;7.642;2023-04-05T07:05:53;7.53;;;6.80;;
2706;SDS011;7819;48.046;7.642;2023-04-05T07:08:19;8.20;;;6.87;;
2706;SDS011;7819;48.046;7.642;2023-04-05T07:10:45;7.90;;;7.10;;
2706;SDS011;7819;48.046;7.642;2023-04-05T07:13:10;7.30;;;6.40;;
2706;SDS011;7819;48.046;7.642;2023-04-05T07:15:35;7.80;;;6.63;;
2706;SDS011;7819;48.046;7.642;2023-04-05T07:18:00;7.60;;;6.90;;
2706;SDS011;7819;48.046;7.642;2023-04-05T07:20:25;13.20;;;6.80;;
2706;SDS011;7819;48.046;7.642;2023-04-05T07:22:51;10.20;;;8.07;;
2706;SDS011;7819;48.046;7.642;2023-04-05T07:25:16;8.40;;;6.80;;
2706;SDS011;7819;48.046;7.642;2023-04-05T07:27:41;7.27;;;6.70;;
2706;SDS011;7819;48.046;7.642;2023-04-05T07:30:06;8.03;;;6.67;;
2706;SDS011;7819;48.046;7.642;2023-04-05T07:32:33;12.00;;;8.07;;
2706;SDS011;7819;48.046;7.642;2023-04-05T07:34:58;7.90;;;7.20;;
2706;SDS011;7819;48.046;7.642;2023-04-05T07:37:23;8.00;;;7.20;;
2706;SDS011;7819;48.046;7.642;2023-04-05T07:39:48;6.77;;;6.03;;
2706;SDS011;7819;48.046;7.642;2023-04-05T07:42:13;8.13;;;5.90;;
2706;SDS011;7819;48.046;7.642;2023-04-05T07:44:38;7.73;;;7.03;;
2706;SDS011;7819;48.046;7.642;2023-04-05T07:47:04;8.00;;;6.93;;
2706;SDS011;7819;48.046;7.642;2023-04-05T07:49:29;6.53;;;5.93;;
2706;SDS011;7819;48.046;7.642;2023-04-05T07:51:55;7.70;;;6.10;;
2706;SDS011;7819;48.046;7.642;2023-04-05T07:54:20;6.60;;;6.00;;
2706;SDS011;7819;48.046;7.642;2023-04-05T07:56:45;6.37;;;5.77;;
2706;SDS011;7819;48.046;7.642;2023-04-05T07:59:11;6.97;;;6.30;;
2706;SDS011;7819;48.046;7.642;2023-04-05T08:01:36;8.77;;;6.70;;
2706;SDS011;7819;48.046;7.642;2023-04-05T08:04:01;6.30;;;5.70;;
2706;SDS011;7819;48.046;7.642;2023-04-05T08:06:27;7.03;;;6.33;;
2706;SDS011;7819;48.046;7.642;2023-04-05T08:08:52;7.60;;;6.87;;
2706;SDS011;7819;48.046;7.642;2023-04-05T08:11:17;6.40;;;5.60;;
2706;SDS011;7819;48.046;7.642;2023-04-05T08:13:42;8.10;;;6.13;;
2706;SDS011;7819;48.046;7.642;2023-04-05T08:16:08;7.63;;;6.60;;
2706;SDS011;7819;48.046;7.642;2023-04-05T08:18:33;7.27;;;5.83;;
2706;SDS011;7819;48.046;7.642;2023-04-05T08:20:59;6.33;;;5.73;;
2706;SDS011;7819;48.046;7.642;2023-04-05T08:23:24;7.33;;;6.30;;
2706;SDS011;7819;48.046;7.642;2023-04-05T08:25:51;7.17;;;6.47;;
2706;SDS011;7819;48.046;7.642;2023-04-05T08:28:16;6.70;;;5.40;;
2706;SDS011;7819;48.046;7.642;2023-04-05T08:30:41;6.80;;;6.10;;
2706;SDS011;7819;48.046;7.642;2023-04-05T08:33:07;6.10;;;5.50;;
2706;SDS011;7819;48.046;7.642;2023-04-05T08:35:34;6.03;;;5.50;;
2706;SDS011;7819;48.046;7.642;2023-04-05T08:38:00;6.00;;;5.40;;
2706;SDS011;7819;48.046;7.642;2023-04-05T08:40:32;9.00;;;6.50;;
2706;SDS011;7819;48.046;7.642;2023-04-05T08:43:06;5.70;;;5.17;;
2706;SDS011;7819;48.046;7.642;2023-04-05T08:45:32;7.07;;;6.37;;
2706;SDS011;7819;48.046;7.642;2023-04-05T08:47:58;8.83;;;6.00;;
2706;SDS011;7819;48.046;7.642;2023-04-05T08:50:23;5.70;;;5.03;;
2706;SDS011;7819;48.046;7.642;2023-04-05T08:52:48;6.20;;;5.23;;
2706;SDS011;7819;48.046;7.642;2023-04-05T08:55:14;5.40;;;4.90;;
2706;SDS011;7819;48.046;7.642;2023-04-05T08:57:40;5.87;;;5.27;;
2706;SDS011;7819;48.046;7.642;2023-04-05T09:00:07;8.40;;;4.90;;
2706;SDS011;7819;48.046;7.642;2023-04-05T09:02:32;5.63;;;4.83;;
2706;SDS011;7819;48.046;7.642;2023-04-05T09:04:58;9.00;;;6.17;;
2706;SDS011;7819;48.046;7.642;2023-04-05T09:07:23;5.77;;;5.23;;
2706;SDS011;7819;48.046;7.642;2023-04-05T09:09:53;6.00;;;4.83;;
2706;SDS011;7819;48.046;7.642;2023-04-05T09:12:21;8.53;;;5.97;;
2706;SDS011;7819;48.046;7.642;2023-04-05T09:14:47;6.20;;;5.60;;
2706;SDS011;7819;48.046;7.642;2023-04-05T09:17:12;5.73;;;5.20;;
2706;SDS011;7819;48.046;7.642;2023-04-05T09:19:39;6.73;;;6.00;;
2706;SDS011;7819;48.046;7.642;2023-04-05T09:22:07;7.93;;;7.23;;
2706;SDS011;7819;48.046;7.642;2023-04-05T09:24:42;5.30;;;4.80;;
2706;SDS011;7819;48.046;7.642;2023-04-05T09:27:11;6.07;;;4.80;;
2706;SDS011;7819;48.046;7.642;2023-04-05T09:29:37;5.90;;;5.10;;
2706;SDS011;7819;48.046;7.642;2023-04-05T09:32:03;5.90;;;5.40;;
2706;SDS011;7819;48.046;7.642;2023-04-05T09:34:32;6.63;;;5.17;;
2706;SDS011;7819;48.046;7.642;2023-04-05T09:36:58;5.83;;;5.20;;
2706;SDS011;7819;48.046;7.642;2023-04-05T09:39:26;4.80;;;4.30;;
2706;SDS011;7819;48.046;7.642;2023-04-05T09:47:25;8.47;;;5.07;;
2706;SDS011;7819;48.046;7.642;2023-04-05T09:49:54;5.33;;;4.83;;
2706;SDS011;7819;48.046;7.642;2023-04-05T09:52:21;5.10;;;4.70;;
2706;SDS011;7819;48.046;7.642;2023-04-05T09:54:46;4.30;;;3.90;;
2706;SDS011;7819;48.046;7.642;2023-04-05T09:57:12;3.83;;;3.53;;
2706;SDS011;7819;48.046;7.642;2023-04-05T09:59:40;5.80;;;5.30;;
2706;SDS011;7819;48.046;7.642;2023-04-05T10:02:05;6.37;;;5.37;;
2706;SDS011;7819;48.046;7.642;2023-04-05T10:04:37;5.90;;;5.30;;
2706;SDS011;7819;48.046;7.642;2023-04-05T10:07:02;5.30;;;4.80;;
2706;SDS011;7819;48.046;7.642;2023-04-05T10:09:28;5.80;;;5.20;;
2706;SDS011;7819;48.046;7.642;2023-04-05T10:11:53;6.80;;;5.60;;
2706;SDS011;7819;48.046;7.642;2023-04-05T10:14:18;6.33;;;5.33;;
2706;SDS011;7819;48.046;7.642;2023-04-05T10:16:44;5.80;;;5.40;;
2706;SDS011;7819;48.046;7.642;2023-04-05T10:19:15;6.40;;;5.87;;
2706;SDS011;7819;48.046;7.642;2023-04-05T10:21:41;6.83;;;5.57;;
2706;SDS011;7819;48.046;7.642;2023-04-05T10:26:58;5.77;;;5.23;;
2706;SDS011;7819;48.046;7.642;2023-04-05T10:29:29;6.70;;;5.20;;
2706;SDS011;7819;48.046;7.642;2023-04-05T10:31:58;5.80;;;5.30;;
2706;SDS011;7819;48.046;7.642;2023-04-05T10:34:44;5.73;;;5.23;;
2706;SDS011;7819;48.046;7.642;2023-04-05T10:39:56;6.07;;;5.57;;
2706;SDS011;7819;48.046;7.642;2023-04-05T10:42:26;5.93;;;5.40;;
2706;SDS011;7819;48.046;7.642;2023-04-05T10:44:53;5.90;;;5.40;;
2706;SDS011;7819;48.046;7.642;2023-04-05T10:47:24;6.63;;;5.57;;
2706;SDS011;7819;48.046;7.642;2023-04-05T10:49:52;5.27;;;4.77;;
2706;SDS011;7819;48.046;7.642;2023-04-05T10:52:17;5.17;;;4.67;;
2706;SDS011;7819;48.046;7.642;2023-04-05T10:54:43;5.60;;;5.10;;
2706;SDS011;7819;48.046;7.642;2023-04-05T10:57:09;5.63;;;5.13;;
2706;SDS011;7819;48.046;7.642;2023-04-05T10:59:35;6.57;;;5.97;;
2706;SDS011;7819;48.046;7.642;2023-04-05T11:02:04;5.20;;;4.70;;
2706;SDS011;7819;48.046;7.642;2023-04-05T11:04:29;5.03;;;4.57;;
2706;SDS011;7819;48.046;7.642;2023-04-05T11:07:09;7.33;;;5.23;;
2706;SDS011;7819;48.046;7.642;2023-04-05T11:09:34;5.93;;;5.40;;
2706;SDS011;7819;48.046;7.642;2023-04-05T11:12:00;5.90;;;5.50;;
2706;SDS011;7819;48.046;7.642;2023-04-05T11:14:33;6.83;;;6.23;;
2706;SDS011;7819;48.046;7.642;2023-04-05T11:16:59;5.97;;;5.13;;
2706;SDS011;7819;48.046;7.642;2023-04-05T11:22:28;5.97;;;4.47;;
2706;SDS011;7819;48.046;7.642;2023-04-05T11:24:54;6.07;;;5.00;;
2706;SDS011;7819;48.046;7.642;2023-04-05T11:27:26;6.40;;;5.70;;
2706;SDS011;7819;48.046;7.642;2023-04-05T11:29:55;5.20;;;4.70;;
2706;SDS011;7819;48.046;7.642;2023-04-05T11:32:20;5.97;;;5.20;;
2706;SDS011;7819;48.046;7.642;2023-04-05T11:34:59;6.20;;;5.60;;
2706;SDS011;7819;48.046;7.642;2023-04-05T11:40:30;5.00;;;4.50;;
2706;SDS011;7819;48.046;7.642;2023-04-05T11:43:10;5.67;;;5.17;;
2706;SDS011;7819;48.046;7.642;2023-04-05T11:45:36;5.73;;;5.13;;
2706;SDS011;7819;48.046;7.642;2023-04-05T11:48:09;4.80;;;4.40;;
2706;SDS011;7819;48.046;7.642;2023-04-05T11:50:35;6.20;;;4.90;;
2706;SDS011;7819;48.046;7.642;2023-04-05T11:55:32;5.67;;;5.17;;
2706;SDS011;7819;48.046;7.642;2023-04-05T11:57:57;5.50;;;4.60;;
2706;SDS011;7819;48.046;7.642;2023-04-05T12:00:22;6.40;;;5.80;;
2706;SDS011;7819;48.046;7.642;2023-04-05T12:02:48;6.70;;;5.93;;
2706;SDS011;7819;48.046;7.642;2023-04-05T12:05:13;5.80;;;5.40;;
2706;SDS011;7819;48.046;7.642;2023-04-05T12:07:38;7.43;;;5.37;;
2706;SDS011;7819;48.046;7.642;2023-04-05T12:12:32;5.20;;;4.80;;
2706;SDS011;7819;48.046;7.642;2023-04-05T12:14:58;4.93;;;4.53;;
2706;SDS011;7819;48.046;7.642;2023-04-05T12:17:38;5.50;;;4.67;;
2706;SDS011;7819;48.046;7.642;2023-04-05T12:20:04;6.23;;;5.23;;
2706;SDS011;7819;48.046;7.642;2023-04-05T12:22:30;5.87;;;5.37;;
2706;SDS011;7819;48.046;7.642;2023-04-05T12:24:55;5.00;;;4.60;;
2706;SDS011;7819;48.046;7.642;2023-04-05T12:27:20;5.03;;;4.63;;
2706;SDS011;7819;48.046;7.642;2023-04-05T12:30:03;5.53;;;5.03;;
2706;SDS011;7819;48.046;7.642;2023-04-05T12:32:34;5.10;;;4.63;;
2706;SDS011;7819;48.046;7.642;2023-04-05T12:34:59;5.80;;;5.30;;
2706;SDS011;7819;48.046;7.642;2023-04-05T12:37:26;5.88;;;5.35;;
2706;SDS011;7819;48.046;7.642;2023-04-05T12:39:53;5.87;;;4.83;;
2706;SDS011;7819;48.046;7.642;2023-04-05T12:42:18;4.83;;;4.30;;
2706;SDS011;7819;48.046;7.642;2023-04-05T12:44:43;5.07;;;4.67;;
2706;SDS011;7819;48.046;7.642;2023-04-05T12:47:08;5.67;;;5.17;;
2706;SDS011;7819;48.046;7.642;2023-04-05T12:49:37;5.30;;;4.80;;
2706;SDS011;7819;48.046;7.642;2023-04-05T12:52:04;4.93;;;4.43;;
2706;SDS011;7819;48.046;7.642;2023-04-05T12:54:29;5.33;;;4.93;;
2706;SDS011;7819;48.046;7.642;2023-04-05T12:56:56;4.80;;;4.40;;
2706;SDS011;7819;48.046;7.642;2023-04-05T12:59:21;5.03;;;4.63;;
2706;SDS011;7819;48.046;7.642;2023-04-05T13:01:46;4.50;;;4.10;;
2706;SDS011;7819;48.046;7.642;2023-04-05T13:04:11;5.10;;;4.70;;
2706;SDS011;7819;48.046;7.642;2023-04-05T13:06:37;5.40;;;5.00;;
2706;SDS011;7819;48.046;7.642;2023-04-05T13:09:02;5.00;;;4.60;;
2706;SDS011;7819;48.046;7.642;2023-04-05T13:11:28;4.93;;;4.40;;
2706;SDS011;7819;48.046;7.642;2023-04-05T13:13:53;4.70;;;4.30;;
2706;SDS011;7819;48.046;7.642;2023-04-05T13:16:18;4.83;;;4.43;;
2706;SDS011;7819;48.046;7.642;2023-04-05T13:18:43;4.70;;;4.30;;
2706;SDS011;7819;48.046;7.642;2023-04-05T13:21:09;6.60;;;4.63;;
2706;SDS011;7819;48.046;7.642;2023-04-05T13:23:35;4.43;;;4.03;;
2706;SDS011;7819;48.046;7.642;2023-04-05T13:26:00;6.20;;;5.60;;
2706;SDS011;7819;48.046;7.642;2023-04-05T13:28:26;6.33;;;4.93;;
2706;SDS011;7819;48.046;7.642;2023-04-05T13:30:51;4.93;;;4.43;;
2706;SDS011;7819;48.046;7.642;2023-04-05T13:33:16;5.17;;;4.70;;
2706;SDS011;7819;48.046;7.642;2023-04-05T13:35:42;4.43;;;4.10;;
2706;SDS011;7819;48.046;7.642;2023-04-05T13:38:07;5.20;;;4.70;;
2706;SDS011;7819;48.046;7.642;2023-04-05T13:40:32;4.77;;;3.93;;
2706;SDS011;7819;48.046;7.642;2023-04-05T13:42:57;4.30;;;3.90;;
2706;SDS011;7819;48.046;7.642;2023-04-05T13:45:22;5.70;;;4.30;;
2706;SDS011;7819;48.046;7.642;2023-04-05T13:47:48;5.67;;;5.10;;
2706;SDS011;7819;48.046;7.642;2023-04-05T13:50:13;6.37;;;4.77;;
2706;SDS011;7819;48.046;7.642;2023-04-05T13:52:38;4.43;;;4.03;;
2706;SDS011;7819;48.046;7.642;2023-04-05T13:55:03;5.07;;;4.60;;
2706;SDS011;7819;48.046;7.642;2023-04-05T13:57:28;4.70;;;4.30;;
2706;SDS011;7819;48.046;7.642;2023-04-05T13:59:54;5.00;;;4.60;;
2706;SDS011;7819;48.046;7.642;2023-04-05T14:02:19;5.13;;;4.63;;
2706;SDS011;7819;48.046;7.642;2023-04-05T14:04:49;4.70;;;4.30;;
2706;SDS011;7819;48.046;7.642;2023-04-05T14:07:14;4.70;;;4.30;;
2706;SDS011;7819;48.046;7.642;2023-04-05T14:09:39;5.27;;;4.77;;
2706;SDS011;7819;48.046;7.642;2023-04-05T14:12:05;5.80;;;4.10;;
2706;SDS011;7819;48.046;7.642;2023-04-05T14:14:30;4.93;;;4.40;;
2706;SDS011;7819;48.046;7.642;2023-04-05T14:16:55;5.23;;;4.50;;
2706;SDS011;7819;48.046;7.642;2023-04-05T14:19:21;4.27;;;3.87;;
2706;SDS011;7819;48.046;7.642;2023-04-05T14:21:46;4.40;;;3.83;;
2706;SDS011;7819;48.046;7.642;2023-04-05T14:24:11;4.93;;;4.53;;
2706;SDS011;7819;48.046;7.642;2023-04-05T14:26:37;6.47;;;4.33;;
2706;SDS011;7819;48.046;7.642;2023-04-05T14:29:02;17.50;;;5.20;;
2706;SDS011;7819;48.046;7.642;2023-04-05T14:31:27;5.27;;;4.77;;
2706;SDS011;7819;48.046;7.642;2023-04-05T14:33:53;5.60;;;4.30;;
2706;SDS011;7819;48.046;7.642;2023-04-05T14:36:18;4.67;;;4.27;;
2706;SDS011;7819;48.046;7.642;2023-04-05T14:38:43;4.40;;;4.00;;
2706;SDS011;7819;48.046;7.642;2023-04-05T14:41:08;4.27;;;3.80;;
2706;SDS011;7819;48.046;7.642;2023-04-05T14:43:34;4.10;;;3.70;;
2706;SDS011;7819;48.046;7.642;2023-04-05T14:45:59;4.73;;;3.73;;
2706;SDS011;7819;48.046;7.642;2023-04-05T14:48:24;5.37;;;4.87;;
2706;SDS011;7819;48.046;7.642;2023-04-05T14:50:51;4.97;;;3.90;;
2706;SDS011;7819;48.046;7.642;2023-04-05T14:53:17;5.70;;;4.32;;
2706;SDS011;7819;48.046;7.642;2023-04-05T14:55:42;3.23;;;2.90;;
2706;SDS011;7819;48.046;7.642;2023-04-05T14:58:07;3.03;;;2.73;;
2706;SDS011;7819;48.046;7.642;2023-04-05T15:00:33;2.60;;;2.40;;
2706;SDS011;7819;48.046;7.642;2023-04-05T15:02:58;2.00;;;1.80;;
2706;SDS011;7819;48.046;7.642;2023-04-05T15:05:23;1.87;;;1.60;;
2706;SDS011;7819;48.046;7.642;2023-04-05T15:07:48;2.43;;;2.23;;
2706;SDS011;7819;48.046;7.642;2023-04-05T15:10:14;3.30;;;1.80;;
2706;SDS011;7819;48.046;7.642;2023-04-05T15:12:39;3.80;;;2.20;;
2706;SDS011;7819;48.046;7.642;2023-04-05T15:15:04;5.00;;;2.13;;
2706;SDS011;7819;48.046;7.642;2023-04-05T15:17:30;4.93;;;2.70;;
2706;SDS011;7819;48.046;7.642;2023-04-05T15:19:55;2.80;;;2.10;;
2706;SDS011;7819;48.046;7.642;2023-04-05T15:22:20;2.80;;;2.40;;
2706;SDS011;7819;48.046;7.642;2023-04-05T15:24:47;2.70;;;2.30;;
2706;SDS011;7819;48.046;7.642;2023-04-05T15:27:12;3.60;;;2.50;;
2706;SDS011;7819;48.046;7.642;2023-04-05T15:29:37;7.60;;;2.63;;
2706;SDS011;7819;48.046;7.642;2023-04-05T15:32:03;2.40;;;1.90;;
2706;SDS011;7819;48.046;7.642;2023-04-05T15:34:29;5.50;;;2.80;;
2706;SDS011;7819;48.046;7.642;2023-04-05T15:36:54;2.53;;;2.30;;
2706;SDS011;7819;48.046;7.642;2023-04-05T15:39:20;2.23;;;1.97;;
2706;SDS011;7819;48.046;7.642;2023-04-05T15:41:45;3.30;;;2.60;;
2706;SDS011;7819;48.046;7.642;2023-04-05T15:44:11;2.63;;;1.63;;